Time;durP1;ratioP1;P1;durP2;ratioP2;P2;SDS_P1;SDS_P2;PMS_P1;PMS_P2;Temp;Humidity;BMP_temperature;BMP_pressure;BME280_temperature;BME280_humidity;BME280_pressure;Samples;Min_cycle;Max_cycle;Signal;HPM_P1;HPM_P2
2023/09/02 00:00:44;;;;;;;;;8.00;8.00;;;;;19.73;100.00;101379.44;5125834;27;47305;-77
2023/09/02 00:03:09;;;;;;;;;7.33;7.33;;;;;19.85;100.00;101394.59;5111174;27;45424;-78
2023/09/02 00:05:35;;;;;;;;;12.67;8.00;;;;;19.90;100.00;101396.91;5116350;27;45432;-78
2023/09/02 00:08:00;;;;;;;;;11.00;6.67;;;;;19.93;100.00;101397.53;5126003;27;45345;-78
2023/09/02 00:10:25;;;;;;;;;12.33;8.33;;;;;19.86;100.00;101377.50;5119949;27;46008;-78
2023/09/02 00:12:50;;;;;;;;;9.33;8.33;;;;;19.90;100.00;101389.72;5116228;27;45290;-78
2023/09/02 00:15:16;;;;;;;;;13.33;10.00;;;;;19.91;100.00;101404.00;5114301;27;45486;-78
2023/09/02 00:17:41;;;;;;;;;9.00;9.00;;;;;19.87;100.00;101392.63;5121732;27;45480;-78
2023/09/02 00:20:10;;;;;;;;;8.00;8.00;;;;;19.93;100.00;101402.91;5114903;27;45594;-77
2023/09/02 00:22:35;;;;;;;;;8.67;7.67;;;;;19.91;100.00;101406.69;5111816;27;45391;-77
2023/09/02 00:25:00;;;;;;;;;10.00;9.00;;;;;19.93;100.00;101397.53;5116553;27;45313;-78
2023/09/02 00:27:26;;;;;;;;;9.67;8.33;;;;;19.75;100.00;101374.78;5121842;27;45260;-77
2023/09/02 00:29:51;;;;;;;;;13.33;13.33;;;;;19.93;100.00;101402.03;5133595;27;45669;-78
2023/09/02 00:32:16;;;;;;;;;13.33;12.67;;;;;19.84;100.00;101387.50;5127109;27;47209;-78
2023/09/02 00:34:42;;;;;;;;;16.33;14.33;;;;;19.92;100.00;101401.22;5118075;27;45342;-78
2023/09/02 00:37:07;;;;;;;;;14.00;12.00;;;;;19.84;100.00;101392.88;5093836;27;45509;-79
2023/09/02 00:39:33;;;;;;;;;14.67;10.33;;;;;19.83;100.00;101395.69;5124452;27;46139;-78
2023/09/02 00:42:00;;;;;;;;;12.67;10.67;;;;;19.78;100.00;101398.72;5122122;27;45377;-78
2023/09/02 00:44:25;;;;;;;;;10.00;10.00;;;;;19.83;100.00;101407.25;5121763;27;45375;-78
2023/09/02 00:46:51;;;;;;;;;10.00;10.00;;;;;19.77;100.00;101405.03;5106771;27;45477;-78
2023/09/02 00:49:17;;;;;;;;;9.33;9.33;;;;;19.65;100.00;101395.25;5103915;27;46369;-77
2023/09/02 00:51:42;;;;;;;;;10.67;9.67;;;;;19.67;100.00;101409.41;5115955;27;45441;-78
2023/09/02 00:54:08;;;;;;;;;10.00;9.00;;;;;19.55;100.00;101388.84;5110669;27;45267;-78
2023/09/02 00:56:35;;;;;;;;;10.67;10.00;;;;;19.54;100.00;101400.56;5102636;27;45319;-78
2023/09/02 00:59:03;;;;;;;;;8.33;8.33;;;;;19.46;100.00;101397.59;5103598;27;45465;-77
2023/09/02 01:01:32;;;;;;;;;12.00;11.00;;;;;19.39;100.00;101397.19;5110751;27;45471;-78
2023/09/02 01:03:58;;;;;;;;;11.67;9.67;;;;;19.33;100.00;101397.63;5129270;27;45293;-77
2023/09/02 01:06:23;;;;;;;;;10.67;9.00;;;;;19.24;100.00;101385.75;5126870;27;47090;-78
2023/09/02 01:08:49;;;;;;;;;9.33;9.33;;;;;19.33;100.00;101412.88;5128768;27;47539;-78
2023/09/02 01:11:15;;;;;;;;;10.00;10.00;;;;;19.27;100.00;101406.97;5110549;27;45279;-78
2023/09/02 01:13:40;;;;;;;;;11.00;11.00;;;;;19.15;100.00;101388.25;5113167;27;45335;-78
2023/09/02 01:16:06;;;;;;;;;9.67;9.67;;;;;19.17;100.00;101400.56;5122318;27;45829;-78
2023/09/02 01:18:33;;;;;;;;;9.67;9.33;;;;;19.07;100.00;101390.66;5131198;27;45330;-77
2023/09/02 01:21:30;;;;;;;;;4.00;2.00;;;;;19.10;100.00;101409.19;5127609;27;44725;-78
2023/09/02 01:24:10;;;;;;;;;12.67;11.00;;;;;19.06;100.00;101402.34;5119209;27;44801;-78
2023/09/02 01:27:07;;;;;;;;;9.67;9.67;;;;;18.96;100.00;101391.44;5113805;27;45438;-78
2023/09/02 01:29:36;;;;;;;;;10.67;9.33;;;;;18.94;100.00;101398.72;5113327;27;45349;-78
2023/09/02 01:32:06;;;;;;;;;9.33;9.33;;;;;18.88;100.00;101395.66;5131492;27;45331;-78
2023/09/02 01:34:34;;;;;;;;;11.00;10.67;;;;;18.80;100.00;101398.88;5125866;27;45220;-78
2023/09/02 01:37:00;;;;;;;;;12.00;8.00;;;;;18.85;100.00;101417.31;5119790;27;45289;-78
2023/09/02 01:39:26;;;;;;;;;11.33;8.67;;;;;18.81;100.00;101411.31;5125687;27;45387;-78
2023/09/02 01:41:52;;;;;;;;;12.33;11.33;;;;;18.70;100.00;101404.03;5128153;27;45203;-78
2023/09/02 01:44:19;;;;;;;;;11.67;10.00;;;;;18.62;100.00;101390.31;5119564;27;45227;-78
2023/09/02 01:46:45;;;;;;;;;12.33;12.00;;;;;18.60;100.00;101394.94;5121515;27;45410;-78
2023/09/02 01:49:11;;;;;;;;;10.33;10.33;;;;;18.67;100.00;101398.03;5120270;27;45591;-77
2023/09/02 01:51:38;;;;;;;;;12.33;11.00;;;;;18.49;100.00;101376.03;5115813;27;45313;-77
2023/09/02 01:54:04;;;;;;;;;12.00;11.67;;;;;18.46;100.00;101375.41;5122225;27;45337;-78
2023/09/02 01:56:29;;;;;;;;;12.33;10.67;;;;;18.54;100.00;101402.53;5122155;27;45326;-77
2023/09/02 01:58:54;;;;;;;;;13.67;11.33;;;;;18.55;100.00;101410.44;5125668;27;45555;-77
2023/09/02 02:01:20;;;;;;;;;11.67;9.33;;;;;18.54;100.00;101402.53;5132990;27;48682;-78
2023/09/02 02:03:58;;;;;;;;;10.00;8.67;;;;;18.40;100.00;101392.75;5121553;27;45461;-78
2023/09/02 02:06:24;;;;;;;;;11.67;9.33;;;;;18.38;100.00;101372.41;5130089;27;45502;-78
2023/09/02 02:09:00;;;;;;;;;13.67;10.67;;;;;18.44;100.00;101391.59;5133978;27;47293;-78
2023/09/02 02:11:28;;;;;;;;;10.67;8.00;;;;;18.42;100.00;101388.16;5138198;27;44711;-78
2023/09/02 02:14:00;;;;;;;;;8.67;8.67;;;;;18.34;100.00;101382.50;5127940;27;45497;-78
2023/09/02 02:16:25;;;;;;;;;9.33;7.00;;;;;18.36;100.00;101377.88;5116943;27;45440;-78
2023/09/02 02:18:51;;;;;;;;;7.00;7.00;;;;;18.36;100.00;101379.69;5146237;27;47430;-78
2023/09/02 02:21:17;;;;;;;;;8.00;8.00;;;;;18.34;100.00;101373.59;5116364;27;45313;-78
2023/09/02 02:23:42;;;;;;;;;9.67;8.33;;;;;18.31;100.00;101372.00;5124467;27;45656;-78
2023/09/02 02:26:07;;;;;;;;;8.00;8.00;;;;;18.30;100.00;101372.09;5129364;27;45595;-78
2023/09/02 02:28:32;;;;;;;;;9.00;8.00;;;;;18.15;100.00;101361.50;5118548;27;46271;-78
2023/09/02 02:31:01;;;;;;;;;9.00;8.33;;;;;18.22;100.00;101376.16;5115804;27;50137;-78
2023/09/02 02:33:26;;;;;;;;;9.67;7.33;;;;;18.16;100.00;101368.56;5114068;27;45349;-78
2023/09/02 02:35:51;;;;;;;;;7.00;7.00;;;;;18.25;100.00;101387.63;5119198;27;45354;-78
2023/09/02 02:38:17;;;;;;;;;10.33;9.00;;;;;18.23;100.00;101382.38;5115344;27;46579;-78
2023/09/02 02:40:42;;;;;;;;;7.67;6.67;;;;;18.16;100.00;101375.72;5116949;27;45224;-77
2023/09/02 02:43:08;;;;;;;;;7.00;7.00;;;;;18.21;100.00;101389.66;5124119;27;45217;-78
2023/09/02 02:45:33;;;;;;;;;9.33;8.00;;;;;18.13;100.00;101374.13;5128113;27;51453;-78
2023/09/02 02:47:58;;;;;;;;;9.67;8.67;;;;;18.17;100.00;101383.66;5123857;27;45318;-78
2023/09/02 02:50:24;;;;;;;;;9.33;9.33;;;;;18.13;100.00;101376.81;5113772;27;45450;-77
2023/09/02 02:52:50;;;;;;;;;8.00;8.00;;;;;18.13;100.00;101386.66;5112734;27;45310;-78
2023/09/02 02:55:16;;;;;;;;;8.00;8.00;;;;;18.04;100.00;101385.47;5113977;27;44933;-78
2023/09/02 02:57:41;;;;;;;;;8.67;8.00;;;;;18.12;100.00;101388.50;5114173;27;45255;-78
2023/09/02 03:00:08;;;;;;;;;10.00;10.00;;;;;18.12;100.00;101401.00;5117510;27;45443;-78
2023/09/02 03:02:34;;;;;;;;;7.33;7.33;;;;;18.10;100.00;101393.06;5119046;27;45342;-78
2023/09/02 03:04:59;;;;;;;;;9.00;7.00;;;;;17.97;100.00;101369.94;5130317;27;45442;-77
2023/09/02 03:07:24;;;;;;;;;8.00;8.00;;;;;18.04;100.00;101398.84;5120854;27;46654;-78
2023/09/02 03:09:50;;;;;;;;;8.00;8.00;;;;;17.96;100.00;101384.28;5121950;27;45427;-77
2023/09/02 03:12:15;;;;;;;;;6.00;6.00;;;;;18.06;100.00;101406.78;5128810;27;45387;-77
2023/09/02 03:14:41;;;;;;;;;8.67;5.33;;;;;18.04;100.00;101409.56;5120631;27;45310;-78
2023/09/02 03:17:07;;;;;;;;;9.00;8.00;;;;;17.97;100.00;101405.59;5108500;27;46267;-78
2023/09/02 03:19:32;;;;;;;;;5.33;5.00;;;;;18.01;100.00;101407.09;5114520;27;45414;-78
2023/09/02 03:21:58;;;;;;;;;8.00;6.33;;;;;17.95;100.00;101398.63;5117376;27;45510;-77
2023/09/02 03:24:23;;;;;;;;;9.00;9.00;;;;;18.01;100.00;101415.13;5118595;27;45258;-78
2023/09/02 03:26:48;;;;;;;;;6.33;6.33;;;;;17.84;100.00;101393.13;5109701;27;55965;-78
2023/09/02 03:29:14;;;;;;;;;9.33;7.00;;;;;17.99;100.00;101414.38;5121884;27;45536;-78
2023/09/02 03:31:39;;;;;;;;;5.00;5.00;;;;;17.98;100.00;101414.47;5115587;27;45363;-78
2023/09/02 03:34:04;;;;;;;;;6.67;6.67;;;;;17.87;100.00;101409.00;5132723;27;44967;-78
2023/09/02 03:36:30;;;;;;;;;7.67;6.67;;;;;17.97;100.00;101428.81;5127945;27;47090;-78
2023/09/02 03:38:55;;;;;;;;;7.00;6.00;;;;;17.96;100.00;101432.47;5120823;27;44739;-78
2023/09/02 03:41:23;;;;;;;;;8.00;5.67;;;;;17.92;100.00;101434.50;5137634;27;45235;-78
2023/09/02 03:43:48;;;;;;;;;7.67;7.67;;;;;17.96;100.00;101437.81;5121632;27;45357;-78
2023/09/02 03:46:14;;;;;;;;;5.67;5.67;;;;;17.90;100.00;101438.25;5135568;27;46565;-78
2023/09/02 03:48:39;;;;;;;;;9.33;6.00;;;;;17.87;100.00;101433.06;5121346;27;45398;-78
2023/09/02 03:51:11;;;;;;;;;7.00;6.00;;;;;17.87;100.00;101433.94;5121177;27;44862;-78
2023/09/02 03:53:38;;;;;;;;;5.00;5.00;;;;;17.80;100.00;101416.56;5115300;27;45547;-78
2023/09/02 03:56:04;;;;;;;;;7.00;6.00;;;;;17.86;100.00;101431.38;5110959;27;47230;-78
2023/09/02 03:58:29;;;;;;;;;5.33;5.33;;;;;17.87;100.00;101433.94;5126804;27;45341;-78
2023/09/02 04:00:55;;;;;;;;;8.67;7.00;;;;;17.89;100.00;101436.53;5110145;27;45357;-77
2023/09/02 04:03:21;;;;;;;;;6.00;4.67;;;;;17.87;100.00;101423.22;5112930;27;45421;-77
2023/09/02 04:05:47;;;;;;;;;5.00;5.00;;;;;17.85;100.00;101417.13;5121193;27;45637;-77
2023/09/02 04:08:15;;;;;;;;;7.50;5.50;;;;;17.86;100.00;101418.00;5127622;27;45329;-77
2023/09/02 04:10:40;;;;;;;;;8.67;7.33;;;;;17.80;100.00;101416.56;5125791;27;45269;-77
2023/09/02 04:13:05;;;;;;;;;7.33;5.67;;;;;17.83;100.00;101410.19;5118906;27;47549;-77
2023/09/02 04:15:31;;;;;;;;;6.00;6.00;;;;;17.73;100.00;101406.41;5128908;27;45318;-78
2023/09/02 04:17:57;;;;;;;;;3.00;3.00;;;;;17.74;100.00;101402.75;5116958;27;45361;-77
2023/09/02 04:20:22;;;;;;;;;7.33;7.00;;;;;17.65;100.00;101391.72;5116820;27;45430;-77
2023/09/02 04:22:47;;;;;;;;;5.67;5.67;;;;;17.76;100.00;101409.75;5117380;27;45573;-77
2023/09/02 04:25:15;;;;;;;;;8.33;6.00;;;;;17.67;100.00;101404.97;5112876;27;45379;-78
2023/09/02 04:27:40;;;;;;;;;7.00;6.33;;;;;17.72;100.00;101413.56;5121569;27;45284;-77
2023/09/02 04:30:06;;;;;;;;;6.33;5.33;;;;;17.64;100.00;101407.88;5124835;27;45304;-78
2023/09/02 04:32:31;;;;;;;;;4.00;4.00;;;;;17.72;100.00;101426.94;5136316;27;45268;-78
2023/09/02 04:34:57;;;;;;;;;6.67;6.00;;;;;17.69;100.00;101428.03;5118761;27;46055;-78
2023/09/02 04:37:22;;;;;;;;;4.00;4.00;;;;;17.69;100.00;101432.50;5118619;27;45469;-79
2023/09/02 04:39:47;;;;;;;;;5.00;5.00;;;;;17.69;100.00;101432.50;5118772;27;45254;-78
2023/09/02 04:42:13;;;;;;;;;5.67;3.67;;;;;17.69;100.00;101437.84;5127709;27;45514;-78
2023/09/02 04:44:38;;;;;;;;;8.33;5.00;;;;;17.68;100.00;101437.00;5116461;27;46210;-79
2023/09/02 04:47:04;;;;;;;;;6.00;5.33;;;;;17.65;100.00;101439.00;5115351;27;45212;-79
2023/09/02 04:49:29;;;;;;;;;4.00;4.00;;;;;17.66;100.00;101427.38;5121113;27;45404;-79
2023/09/02 04:51:54;;;;;;;;;7.00;6.00;;;;;17.67;100.00;101427.25;5112531;27;46743;-79
2023/09/02 04:54:20;;;;;;;;;2.33;2.00;;;;;17.62;100.00;101424.03;5117692;27;56030;-78
2023/09/02 04:56:45;;;;;;;;;6.00;5.00;;;;;17.66;100.00;101430.91;5114868;27;49567;-78
2023/09/02 04:59:10;;;;;;;;;4.67;4.00;;;;;17.65;100.00;101433.66;5109874;27;45558;-79
2023/09/02 05:01:35;;;;;;;;;5.00;5.00;;;;;17.64;100.00;101429.25;5125350;27;60486;-79
2023/09/02 05:04:01;;;;;;;;;3.67;3.67;;;;;17.61;100.00;101419.63;5115118;27;45295;-78
2023/09/02 05:06:26;;;;;;;;;4.33;4.00;;;;;17.62;100.00;101418.69;5127364;27;46836;-78
2023/09/02 05:08:54;;;;;;;;;3.00;3.00;;;;;17.64;100.00;101423.91;5123233;27;45240;-78
2023/09/02 05:11:20;;;;;;;;;4.00;4.00;;;;;17.63;100.00;101433.78;5130306;27;45333;-79
2023/09/02 05:13:48;;;;;;;;;4.33;4.00;;;;;17.62;100.00;101439.22;5121549;27;46116;-78
2023/09/02 05:16:13;;;;;;;;;4.67;4.00;;;;;17.55;100.00;101432.53;5117876;27;45313;-79
2023/09/02 05:18:38;;;;;;;;;5.00;5.00;;;;;17.62;100.00;101449.91;5116679;27;45565;-79
2023/09/02 05:21:03;;;;;;;;;3.67;3.67;;;;;17.57;100.00;101447.53;5119759;27;48516;-78
2023/09/02 05:23:29;;;;;;;;;4.33;4.33;;;;;17.53;100.00;101458.53;5130030;27;51018;-78
2023/09/02 05:25:56;;;;;;;;;6.33;5.33;;;;;17.61;100.00;101472.28;5121755;27;44748;-78
2023/09/02 05:28:22;;;;;;;;;6.33;4.00;;;;;17.59;100.00;101466.19;5116857;27;45224;-79
2023/09/02 05:30:48;;;;;;;;;3.67;3.33;;;;;17.63;100.00;101467.69;5127170;27;44918;-78
2023/09/02 05:33:14;;;;;;;;;5.00;4.00;;;;;17.66;100.00;101467.50;5133900;27;45393;-78
2023/09/02 05:35:39;;;;;;;;;4.00;3.00;;;;;17.57;100.00;101446.72;5125966;27;45469;-78
2023/09/02 05:38:06;;;;;;;;;3.67;3.67;;;;;17.70;100.00;101469.84;5121868;27;45324;-78
2023/09/02 05:40:31;;;;;;;;;3.33;3.33;;;;;17.72;100.00;101472.44;5130824;27;44761;-78
2023/09/02 05:42:56;;;;;;;;;4.00;4.00;;;;;17.74;100.00;101470.50;5113686;27;46040;-78
2023/09/02 05:45:22;;;;;;;;;4.00;4.00;;;;;17.76;100.00;101479.31;5111278;27;45447;-78
2023/09/02 05:47:47;;;;;;;;;6.00;4.33;;;;;17.75;100.00;101468.69;5117274;27;45207;-78
2023/09/02 05:50:13;;;;;;;;;5.00;5.00;;;;;17.76;100.00;101473.94;5121851;27;45266;-79
2023/09/02 05:52:39;;;;;;;;;7.00;6.00;;;;;17.72;100.00;101463.53;5121387;27;46424;-78
2023/09/02 05:55:05;;;;;;;;;5.00;3.33;;;;;17.81;100.00;101466.47;5109995;27;45259;-78
2023/09/02 05:57:30;;;;;;;;;5.67;3.67;;;;;17.94;100.00;101496.81;5124248;27;45312;-78
2023/09/02 05:59:55;;;;;;;;;3.67;3.67;;;;;17.98;100.00;101489.44;5120345;27;45601;-81
2023/09/02 06:02:21;;;;;;;;;2.33;2.33;;;;;17.99;100.00;101491.16;5112756;27;46173;-80
2023/09/02 06:04:46;;;;;;;;;4.00;4.00;;;;;17.95;100.00;101477.13;5110261;27;44626;-81
2023/09/02 06:07:11;;;;;;;;;4.67;4.67;;;;;18.02;100.00;101488.25;5118789;27;45804;-81
2023/09/02 06:09:37;;;;;;;;;6.00;6.00;;;;;18.04;100.00;101484.50;5109583;27;45743;-80
2023/09/02 06:12:02;;;;;;;;;6.00;4.67;;;;;17.98;100.00;101470.69;5110489;27;47424;-79
2023/09/02 06:14:28;;;;;;;;;5.00;5.00;;;;;18.11;100.00;101484.97;5115171;27;45652;-79
2023/09/02 06:16:53;;;;;;;;;6.00;5.00;;;;;18.14;100.00;101479.41;5105040;27;45398;-79
2023/09/02 06:19:18;;;;;;;;;5.67;5.33;;;;;18.24;100.00;101488.53;5115134;27;45569;-79
2023/09/02 06:21:45;;;;;;;;;5.33;5.33;;;;;18.20;100.00;101471.81;5113043;27;47067;-79
2023/09/02 06:24:10;;;;;;;;;4.00;4.00;;;;;18.37;100.00;101496.56;5115123;27;45351;-79
2023/09/02 06:26:36;;;;;;;;;4.00;4.00;;;;;18.41;100.00;101503.44;5107943;27;45414;-78
2023/09/02 06:29:01;;;;;;;;;5.00;5.00;;;;;18.40;100.00;101501.72;5109366;27;51057;-79
2023/09/02 06:31:26;;;;;;;;;3.67;3.67;;;;;18.50;100.00;101513.56;5113433;27;46143;-79
2023/09/02 06:33:52;;;;;;;;;5.00;3.33;;;;;18.52;100.00;101511.66;5118461;27;44791;-79
2023/09/02 06:36:19;;;;;;;;;5.67;5.67;;;;;18.53;100.00;101513.34;5130485;27;48769;-79
2023/09/02 06:38:44;;;;;;;;;2.67;2.67;;;;;18.41;100.00;101493.59;5116977;27;45317;-78
2023/09/02 06:41:15;;;;;;;;;5.67;5.00;;;;;18.70;100.00;101542.50;5126584;27;45289;-78
2023/09/02 06:43:41;;;;;;;;;4.00;4.00;;;;;18.67;100.00;101510.56;5114888;27;45423;-79
2023/09/02 06:46:17;;;;;;;;;3.33;3.33;;;;;18.85;100.00;101528.03;5105818;27;45361;-79
2023/09/02 06:48:44;;;;;;;;;5.00;5.00;;;;;18.88;100.00;101522.44;5107028;27;45221;-79
2023/09/02 06:51:09;;;;;;;;;3.33;3.33;;;;;18.97;100.00;101531.69;5110684;27;45605;-79
2023/09/02 06:53:35;;;;;;;;;5.00;5.00;;;;;19.04;100.00;101536.50;5119732;27;45362;-79
2023/09/02 06:56:00;;;;;;;;;3.67;2.00;;;;;19.01;100.00;101509.06;5122634;27;45427;-79
2023/09/02 06:58:26;;;;;;;;;4.00;4.00;;;;;18.98;100.00;101501.22;5106513;27;45288;-79
2023/09/02 07:00:51;;;;;;;;;4.33;4.00;;;;;19.26;100.00;101538.53;5118971;27;46274;-79
2023/09/02 07:03:16;;;;;;;;;4.33;4.33;;;;;19.31;100.00;101524.75;5119221;27;45278;-79
2023/09/02 07:05:42;;;;;;;;;4.00;4.00;;;;;19.42;100.00;101544.53;5107140;27;45824;-80
2023/09/02 07:08:07;;;;;;;;;5.33;5.00;;;;;19.50;100.00;101534.09;5118378;27;45582;-80
2023/09/02 07:10:32;;;;;;;;;1.00;1.00;;;;;19.60;100.00;101534.31;5116194;27;46203;-79
2023/09/02 07:12:58;;;;;;;;;9.00;6.00;;;;;19.73;100.00;101545.84;5135747;27;45387;-79
2023/09/02 07:15:23;;;;;;;;;5.00;5.00;;;;;19.84;100.00;101551.25;5128896;27;45489;-79
2023/09/02 07:17:48;;;;;;;;;6.67;5.00;;;;;19.98;100.00;101559.16;5126512;27;45326;-80
2023/09/02 07:20:14;;;;;;;;;2.00;2.00;;;;;19.98;100.00;101534.13;5115156;27;53356;-80
2023/09/02 07:22:39;;;;;;;;;4.00;4.00;;;;;20.07;100.00;101526.25;5118014;27;45360;-80
2023/09/02 07:25:07;;;;;;;;;5.00;5.00;;;;;20.23;100.00;101556.34;5115820;27;46318;-80
2023/09/02 07:27:33;;;;;;;;;5.67;3.00;;;;;20.18;100.00;101546.94;5121031;27;45887;-80
2023/09/02 07:29:59;;;;;;;;;6.00;5.00;;;;;20.13;100.00;101552.63;5116340;27;46124;-79
2023/09/02 07:32:24;;;;;;;;;5.00;3.67;;;;;20.23;100.00;101564.41;5122163;27;44761;-79
2023/09/02 07:34:50;;;;;;;;;3.00;3.00;;;;;20.24;100.00;101549.16;5120405;27;45495;-79
2023/09/02 07:37:15;;;;;;;;;3.00;3.00;;;;;20.28;100.00;101558.72;5122006;27;45591;-79
2023/09/02 07:39:41;;;;;;;;;5.00;5.00;;;;;20.29;100.00;101549.69;5121499;27;45494;-79
2023/09/02 07:42:06;;;;;;;;;3.00;3.00;;;;;20.42;100.00;101571.13;5120824;27;45309;-79
2023/09/02 07:44:31;;;;;;;;;5.00;5.00;;;;;20.58;100.00;101609.28;5124033;27;45468;-79
2023/09/02 07:46:57;;;;;;;;;4.33;4.33;;;;;20.84;100.00;101621.59;5121133;27;45510;-79
2023/09/02 07:49:22;;;;;;;;;5.00;5.00;;;;;20.91;100.00;101627.38;5114691;27;45228;-79
2023/09/02 07:51:48;;;;;;;;;5.00;5.00;;;;;20.97;100.00;101606.22;5111834;27;45451;-79
2023/09/02 07:54:14;;;;;;;;;7.33;7.33;;;;;21.05;100.00;101602.91;5121161;27;45341;-79
2023/09/02 07:56:40;;;;;;;;;9.33;6.00;;;;;20.91;100.00;101582.47;5117798;27;45607;-79
2023/09/02 07:59:06;;;;;;;;;6.33;4.33;;;;;21.08;100.00;101622.38;5113670;27;45358;-79
2023/09/02 08:01:31;;;;;;;;;7.67;5.00;;;;;21.15;100.00;101642.47;5122963;27;45414;-79
2023/09/02 08:03:57;;;;;;;;;7.33;5.67;;;;;21.27;100.00;101644.19;5116739;27;45525;-78
2023/09/02 08:06:22;;;;;;;;;5.33;5.33;;;;;21.45;100.00;101633.81;5123554;27;45471;-79
2023/09/02 08:08:47;;;;;;;;;5.67;5.00;;;;;21.54;100.00;101608.00;5112627;27;46031;-79
2023/09/02 08:11:17;;;;;;;;;6.33;6.33;;;;;21.71;100.00;101615.56;5113723;27;45311;-78
2023/09/02 08:13:43;;;;;;;;;6.00;4.33;;;;;21.83;100.00;101623.50;5124457;27;45446;-79
2023/09/02 08:16:08;;;;;;;;;6.33;6.00;;;;;21.94;100.00;101621.81;5110007;27;45484;-79
2023/09/02 08:18:34;;;;;;;;;5.67;5.67;;;;;21.81;100.00;101632.72;5115101;27;45501;-79
2023/09/02 08:20:59;;;;;;;;;6.67;6.67;;;;;21.72;100.00;101614.59;5117793;27;45661;-78
2023/09/02 08:23:25;;;;;;;;;7.67;5.00;;;;;21.67;100.00;101614.09;5109499;27;45382;-79
2023/09/02 08:25:50;;;;;;;;;6.33;6.00;;;;;21.75;100.00;101635.91;5112669;27;45524;-79
2023/09/02 08:28:15;;;;;;;;;6.67;5.67;;;;;21.69;100.00;101634.53;5125917;27;45438;-79
2023/09/02 08:30:41;;;;;;;;;6.00;6.00;;;;;21.77;100.00;101632.09;5123484;27;45353;-79
2023/09/02 08:33:07;;;;;;;;;7.33;6.33;;;;;21.79;100.00;101611.28;5124859;27;45313;-79
2023/09/02 08:35:38;;;;;;;;;6.00;6.00;;;;;21.95;100.00;101589.38;5113839;27;45635;-79
2023/09/02 08:38:04;;;;;;;;;6.00;6.00;;;;;22.30;100.00;101611.56;5123023;27;46371;-79
2023/09/02 08:40:30;;;;;;;;;6.33;6.00;;;;;22.50;95.46;101611.72;5121289;27;45899;-79
2023/09/02 08:42:58;;;;;;;;;3.33;3.00;;;;;22.63;95.63;101586.28;5110022;27;45308;-79
2023/09/02 08:45:25;;;;;;;;;5.00;5.00;;;;;22.76;94.02;101578.03;5108455;27;45311;-79
2023/09/02 08:47:58;;;;;;;;;4.00;4.00;;;;;22.92;94.91;101582.97;5118474;27;46258;-79
2023/09/02 08:50:26;;;;;;;;;7.67;6.00;;;;;22.99;93.52;101571.50;5138550;27;45509;-79
2023/09/02 08:52:52;;;;;;;;;5.00;5.00;;;;;23.18;93.10;101582.41;5119594;27;45570;-79
2023/09/02 08:55:18;;;;;;;;;7.00;5.33;;;;;23.28;93.85;101566.25;5109630;27;45299;-79
2023/09/02 08:57:44;;;;;;;;;8.00;6.00;;;;;23.46;88.51;101566.50;5107127;27;45362;-79
2023/09/02 09:00:10;;;;;;;;;1.00;1.00;;;;;23.51;86.57;101565.09;5107802;27;45573;-79
2023/09/02 09:02:40;;;;;;;;;3.67;3.67;;;;;23.80;85.72;101581.38;5111719;27;45464;-80
2023/09/02 09:05:06;;;;;;;;;4.00;4.00;;;;;23.87;87.88;101577.16;5114422;27;45270;-80
2023/09/02 09:07:32;;;;;;;;;3.67;3.67;;;;;24.05;88.05;101567.34;5103384;27;45456;-79
2023/09/02 09:10:01;;;;;;;;;4.00;4.00;;;;;24.21;88.57;101564.16;5115098;27;45407;-80
2023/09/02 09:12:31;;;;;;;;;3.00;3.00;;;;;24.37;84.08;101567.13;5120229;27;45588;-80
2023/09/02 09:14:58;;;;;;;;;3.67;3.33;;;;;24.51;85.99;101558.56;5122023;27;45339;-80
2023/09/02 09:17:25;;;;;;;;;3.00;3.00;;;;;24.43;84.98;101552.19;5118659;27;45480;-79
2023/09/02 09:19:52;;;;;;;;;3.00;3.00;;;;;24.59;81.25;101544.31;5100749;27;45349;-80
2023/09/02 09:22:18;;;;;;;;;1.33;1.33;;;;;24.82;82.74;101561.97;5102895;27;45461;-80
2023/09/02 09:24:44;;;;;;;;;2.00;2.00;;;;;24.93;80.89;101566.38;5106623;27;45368;-79
2023/09/02 09:27:10;;;;;;;;;3.00;2.00;;;;;25.01;78.19;101578.16;5111769;27;46891;-80
2023/09/02 09:29:40;;;;;;;;;3.00;3.00;;;;;25.03;77.86;101559.09;5113291;27;45661;-79
2023/09/02 09:32:15;;;;;;;;;4.00;3.00;;;;;25.12;78.69;101567.19;5118248;27;45450;-79
2023/09/02 09:34:43;;;;;;;;;6.67;5.00;;;;;25.22;77.19;101578.84;5114888;27;45536;-79
2023/09/02 09:37:09;;;;;;;;;5.67;4.33;;;;;25.14;75.14;101576.00;5113390;27;46391;-79
2023/09/02 09:39:42;;;;;;;;;2.00;2.00;;;;;25.20;75.62;101583.53;5109028;27;45274;-79
2023/09/02 09:42:08;;;;;;;;;5.00;3.67;;;;;25.27;77.16;101581.06;5112265;27;45340;-79
2023/09/02 09:44:33;;;;;;;;;1.67;1.67;;;;;25.37;75.52;101600.84;5117594;27;45317;-79
2023/09/02 09:47:00;;;;;;;;;2.00;2.00;;;;;25.45;81.45;101600.13;5115745;27;45487;-80
2023/09/02 09:49:29;;;;;;;;;3.00;3.00;;;;;25.60;81.31;101615.75;5108589;27;45442;-79
2023/09/02 09:52:00;;;;;;;;;2.33;2.33;;;;;25.63;76.03;101618.16;5098928;27;45478;-80
2023/09/02 09:54:40;;;;;;;;;1.67;1.67;;;;;25.51;73.86;101621.22;5097981;27;45328;-79
2023/09/02 09:57:08;;;;;;;;;3.33;3.00;;;;;25.59;73.95;101608.63;5116419;27;47241;-79
2023/09/02 09:59:37;;;;;;;;;5.00;2.00;;;;;25.77;73.85;101605.97;5116016;27;45413;-79
2023/09/02 10:02:04;;;;;;;;;3.00;2.00;;;;;25.95;74.94;101615.00;5116391;27;45338;-80
2023/09/02 10:04:30;;;;;;;;;2.67;2.67;;;;;26.01;69.66;101613.56;5106360;27;45412;-79
2023/09/02 10:07:00;;;;;;;;;3.00;3.00;;;;;26.20;70.14;101619.75;5116117;27;45459;-79
2023/09/02 10:09:43;;;;;;;;;2.00;2.00;;;;;26.40;72.21;101607.75;5118370;27;45352;-79
2023/09/02 10:12:13;;;;;;;;;3.00;2.67;;;;;26.62;68.83;101606.41;5127936;27;45312;-79
2023/09/02 10:14:44;;;;;;;;;2.00;2.00;;;;;26.63;70.20;101572.84;5101975;27;45476;-79
2023/09/02 10:17:09;;;;;;;;;3.33;1.67;;;;;26.92;67.31;101600.56;5116248;27;45333;-79
2023/09/02 10:19:36;;;;;;;;;3.00;3.00;;;;;26.96;71.55;101573.97;5100875;27;45365;-79
2023/09/02 10:22:02;;;;;;;;;2.00;2.00;;;;;27.18;64.40;101587.00;5103793;27;46681;-79
2023/09/02 10:24:33;;;;;;;;;1.33;1.33;;;;;27.20;69.18;101593.09;5115320;27;45278;-80
2023/09/02 10:27:00;;;;;;;;;4.00;3.00;;;;;27.29;67.71;101604.88;5116199;27;45799;-80
2023/09/02 10:29:32;;;;;;;;;3.00;2.00;;;;;27.28;64.61;101604.03;5100136;27;45342;-80
2023/09/02 10:32:09;;;;;;;;;2.00;2.00;;;;;27.29;71.01;101596.75;5099668;27;45441;-79
2023/09/02 10:34:41;;;;;;;;;1.67;1.67;;;;;27.18;69.14;101578.84;5101813;27;45274;-79
2023/09/02 10:37:12;;;;;;;;;2.00;2.00;;;;;27.23;67.68;101595.50;5111539;27;46482;-79
2023/09/02 10:40:15;;;;;;;;;1.67;1.67;;;;;27.27;65.73;101596.88;5098989;27;45306;-79
2023/09/02 10:42:41;;;;;;;;;2.00;2.00;;;;;27.19;65.38;101607.69;5077045;27;45282;-80
2023/09/02 10:45:06;;;;;;;;;3.00;3.00;;;;;27.07;67.88;101576.38;5100608;27;45292;-78
2023/09/02 10:47:32;;;;;;;;;2.00;2.00;;;;;27.32;65.86;101597.25;5118411;27;47310;-79
2023/09/02 10:49:58;;;;;;;;;14.00;11.00;;;;;27.34;66.40;101602.53;5102209;27;45326;-79
2023/09/02 10:52:23;;;;;;;;;2.00;2.00;;;;;27.41;65.30;101592.72;5104788;27;45615;-79
2023/09/02 10:55:11;;;;;;;;;1.67;1.67;;;;;27.38;66.45;101591.19;5113339;27;46995;-78
2023/09/02 10:57:46;;;;;;;;;2.00;2.00;;;;;27.27;67.90;101587.88;5117954;27;46454;-77
2023/09/02 11:00:26;;;;;;;;;3.00;2.00;;;;;27.18;65.99;101587.00;5117352;27;45397;-79
2023/09/02 11:02:53;;;;;;;;;3.00;3.00;;;;;27.15;66.46;101600.03;5104848;27;45397;-79
2023/09/02 11:05:20;;;;;;;;;2.00;2.00;;;;;27.13;65.18;101602.91;5096377;27;45398;-79
2023/09/02 11:07:46;;;;;;;;;1.00;1.00;;;;;27.14;65.40;101607.34;5114646;27;47119;-79
2023/09/02 11:10:12;;;;;;;;;2.00;2.00;;;;;27.12;63.74;101603.94;5110337;27;45332;-79
2023/09/02 11:12:59;;;;;;;;;1.33;1.33;;;;;27.13;64.82;101602.91;5115842;27;45576;-79
2023/09/02 11:15:25;;;;;;;;;2.33;1.00;;;;;27.07;65.89;101589.09;5115249;27;45614;-79